Time;durP1;ratioP1;P1;durP2;ratioP2;P2;SDS_P1;SDS_P2;PMS_P1;PMS_P2;Temp;Humidity;BMP_temperature;BMP_pressure;BME280_temperature;BME280_humidity;BME280_pressure;Samples;Min_cycle;Max_cycle;Signal;HPM_P1;HPM_P2
2021/09/15 00:01:46;;;;;;;25.92;15.52;;;;;;;;;;5007242;28;20029;-62
2021/09/15 00:04:16;;;;;;;23.00;15.60;;;;;;;;;;4987095;28;20034;-62
2021/09/15 00:06:44;;;;;;;26.35;16.30;;;;;;;;;;4977165;28;20033;-61
2021/09/15 00:09:12;;;;;;;24.77;17.00;;;;;;;;;;5004734;28;20815;-61
2021/09/15 00:11:37;;;;;;;24.75;15.40;;;;;;;;;;5005654;28;20168;-61
2021/09/15 00:14:05;;;;;;;27.20;16.88;;;;;;;;;;4970064;28;21398;-61
2021/09/15 00:16:31;;;;;;;24.63;15.25;;;;;;;;;;4988163;28;20053;-62
2021/09/15 00:18:56;;;;;;;23.55;15.73;;;;;;;;;;5016121;28;20040;-63
2021/09/15 00:21:22;;;;;;;26.88;16.90;;;;;;;;;;4990406;28;20511;-61
2021/09/15 00:23:50;;;;;;;26.45;17.42;;;;;;;;;;4985041;28;20667;-62
2021/09/15 00:26:20;;;;;;;31.45;16.70;;;;;;;;;;4990907;28;20029;-63
2021/09/15 00:28:45;;;;;;;32.25;17.48;;;;;;;;;;4996736;28;20044;-62
2021/09/15 00:31:13;;;;;;;26.90;15.90;;;;;;;;;;4985050;28;20062;-61
2021/09/15 00:33:45;;;;;;;29.85;16.90;;;;;;;;;;5007215;28;20046;-62
2021/09/15 00:36:13;;;;;;;27.88;16.85;;;;;;;;;;5008259;28;20072;-63
2021/09/15 00:38:43;;;;;;;27.23;15.82;;;;;;;;;;5004412;28;20037;-62
2021/09/15 00:41:11;;;;;;;26.70;16.98;;;;;;;;;;4976843;28;20052;-62
2021/09/15 00:43:58;;;;;;;29.23;16.45;;;;;;;;;;5008319;28;20041;-62
2021/09/15 00:46:27;;;;;;;25.63;17.83;;;;;;;;;;5011041;28;20068;-62
2021/09/15 00:48:54;;;;;;;28.30;17.60;;;;;;;;;;5000673;28;20159;-62
2021/09/15 00:51:22;;;;;;;26.27;16.63;;;;;;;;;;5003378;28;20033;-63
2021/09/15 00:53:49;;;;;;;31.35;17.67;;;;;;;;;;5002617;28;20040;-61
2021/09/15 00:56:17;;;;;;;25.65;16.42;;;;;;;;;;5002468;28;20976;-63
2021/09/15 00:58:45;;;;;;;28.27;16.38;;;;;;;;;;4999691;28;20134;-62
2021/09/15 01:01:13;;;;;;;32.13;18.95;;;;;;;;;;5009368;28;20041;-61
2021/09/15 01:03:41;;;;;;;25.48;17.30;;;;;;;;;;5007688;28;20030;-61
2021/09/15 01:06:10;;;;;;;31.13;17.48;;;;;;;;;;5005894;28;20038;-64
2021/09/15 01:08:38;;;;;;;26.08;17.55;;;;;;;;;;5021971;28;20052;-62
2021/09/15 01:11:04;;;;;;;29.00;17.98;;;;;;;;;;5025793;28;20147;-63
2021/09/15 01:13:30;;;;;;;27.88;18.83;;;;;;;;;;5007993;28;20529;-62
2021/09/15 01:15:58;;;;;;;30.48;18.33;;;;;;;;;;5025581;28;20075;-64
2021/09/15 01:18:24;;;;;;;33.70;17.80;;;;;;;;;;5006156;28;20133;-62
2021/09/15 01:20:49;;;;;;;27.17;17.50;;;;;;;;;;4995403;28;20036;-63
2021/09/15 01:23:15;;;;;;;29.27;17.88;;;;;;;;;;5008905;28;20040;-63
2021/09/15 01:25:44;;;;;;;32.58;18.45;;;;;;;;;;5025906;28;20160;-62
2021/09/15 01:28:10;;;;;;;36.35;19.88;;;;;;;;;;4977027;28;20039;-63
2021/09/15 01:30:36;;;;;;;31.20;20.20;;;;;;;;;;4997059;28;20397;-62
2021/09/15 01:33:02;;;;;;;30.08;18.42;;;;;;;;;;5375291;22;20054;-62
2021/09/15 01:35:27;;;;;;;31.95;19.08;;;;;;;;;;4981064;28;20495;-62
2021/09/15 01:37:52;;;;;;;31.75;19.05;;;;;;;;;;4974855;28;20772;-62
2021/09/15 01:40:22;;;;;;;29.80;19.17;;;;;;;;;;4989160;28;20034;-62
2021/09/15 01:42:48;;;;;;;34.85;20.45;;;;;;;;;;4993841;28;20046;-62
2021/09/15 01:45:15;;;;;;;31.95;19.08;;;;;;;;;;4978643;28;20041;-63
2021/09/15 01:47:41;;;;;;;31.20;19.70;;;;;;;;;;4975392;28;20069;-62
2021/09/15 01:50:09;;;;;;;35.88;20.67;;;;;;;;;;4977009;28;20100;-61
2021/09/15 01:52:39;;;;;;;40.13;20.50;;;;;;;;;;4993860;28;20040;-63
2021/09/15 01:55:17;;;;;;;36.10;20.52;;;;;;;;;;4991222;28;20128;-64
2021/09/15 01:57:43;;;;;;;42.28;20.70;;;;;;;;;;4992980;28;20033;-62
2021/09/15 02:00:11;;;;;;;31.77;19.95;;;;;;;;;;4991270;28;20124;-61
2021/09/15 02:02:39;;;;;;;36.08;21.02;;;;;;;;;;4994431;28;20040;-62
2021/09/15 02:05:07;;;;;;;32.70;19.95;;;;;;;;;;4995140;28;20033;-62
2021/09/15 02:07:33;;;;;;;34.70;20.92;;;;;;;;;;4990686;28;20044;-64
2021/09/15 02:09:58;;;;;;;37.80;21.35;;;;;;;;;;4993405;28;20425;-62
2021/09/15 02:12:26;;;;;;;34.45;20.88;;;;;;;;;;4996232;28;20425;-63
2021/09/15 02:14:51;;;;;;;40.83;22.05;;;;;;;;;;4991294;28;20029;-62
2021/09/15 02:17:19;;;;;;;36.83;21.45;;;;;;;;;;4993080;28;20038;-62
2021/09/15 02:19:50;;;;;;;37.97;22.73;;;;;;;;;;4995154;28;20151;-62
2021/09/15 02:22:15;;;;;;;39.20;21.20;;;;;;;;;;4999036;28;20052;-63
2021/09/15 02:24:43;;;;;;;32.63;20.40;;;;;;;;;;5008846;28;20053;-63
2021/09/15 02:27:09;;;;;;;39.90;22.77;;;;;;;;;;4960424;28;20128;-62
2021/09/15 02:29:39;;;;;;;43.17;23.58;;;;;;;;;;4991781;28;20469;-62
2021/09/15 02:32:08;;;;;;;36.20;22.25;;;;;;;;;;4995513;28;20029;-62
2021/09/15 02:34:36;;;;;;;38.95;21.92;;;;;;;;;;4978246;28;20071;-62
2021/09/15 02:37:01;;;;;;;38.60;23.17;;;;;;;;;;4993721;28;20483;-62
2021/09/15 02:39:30;;;;;;;44.75;25.17;;;;;;;;;;4992302;28;20724;-63
2021/09/15 02:41:56;;;;;;;48.15;26.02;;;;;;;;;;4979254;28;20044;-62
2021/09/15 02:44:21;;;;;;;48.67;24.00;;;;;;;;;;4992865;28;20029;-62
2021/09/15 02:46:49;;;;;;;41.63;23.42;;;;;;;;;;4994112;28;20476;-63
2021/09/15 02:49:17;;;;;;;46.60;25.17;;;;;;;;;;4990329;28;20626;-62
2021/09/15 02:51:42;;;;;;;41.95;25.02;;;;;;;;;;4976089;28;20021;-62
2021/09/15 02:54:08;;;;;;;42.10;24.42;;;;;;;;;;4976321;28;20026;-63
2021/09/15 02:56:38;;;;;;;49.30;24.13;;;;;;;;;;4954368;28;20034;-63
2021/09/15 02:59:06;;;;;;;50.58;26.25;;;;;;;;;;4975031;28;20044;-63
2021/09/15 03:01:32;;;;;;;51.80;26.83;;;;;;;;;;4975891;28;22012;-63
2021/09/15 03:04:01;;;;;;;54.63;28.30;;;;;;;;;;4992385;28;20026;-63
2021/09/15 03:06:29;;;;;;;57.42;28.23;;;;;;;;;;5009328;28;22090;-63
2021/09/15 03:08:57;;;;;;;49.63;25.70;;;;;;;;;;4978787;28;20064;-63
2021/09/15 03:11:23;;;;;;;55.67;28.10;;;;;;;;;;4985229;28;20034;-62
2021/09/15 03:13:48;;;;;;;58.20;27.20;;;;;;;;;;4978006;28;20787;-62
2021/09/15 03:16:21;;;;;;;54.13;28.00;;;;;;;;;;4993792;28;20029;-62
2021/09/15 03:18:49;;;;;;;55.40;28.05;;;;;;;;;;4991195;28;20469;-62
2021/09/15 03:21:14;;;;;;;66.88;30.55;;;;;;;;;;4969505;28;20567;-62
2021/09/15 03:23:42;;;;;;;55.65;28.92;;;;;;;;;;4976873;28;20026;-62
2021/09/15 03:26:07;;;;;;;56.00;28.52;;;;;;;;;;4992431;28;20029;-63
2021/09/15 03:28:33;;;;;;;59.80;28.85;;;;;;;;;;4992152;28;20099;-62
2021/09/15 03:30:59;;;;;;;53.60;28.17;;;;;;;;;;4977765;28;20022;-62
2021/09/15 03:33:24;;;;;;;65.60;29.92;;;;;;;;;;5007987;28;20049;-62
2021/09/15 03:35:57;;;;;;;60.17;28.73;;;;;;;;;;4992614;28;20029;-62
2021/09/15 03:38:27;;;;;;;63.83;30.40;;;;;;;;;;4990663;28;20054;-63
2021/09/15 03:41:00;;;;;;;66.50;31.63;;;;;;;;;;4973388;28;20033;-62
2021/09/15 03:43:27;;;;;;;68.28;27.65;;;;;;;;;;4974281;28;20065;-62
2021/09/15 03:45:55;;;;;;;54.03;28.40;;;;;;;;;;4978283;28;20030;-62
2021/09/15 03:48:21;;;;;;;66.13;31.13;;;;;;;;;;4983615;28;20048;-63
2021/09/15 03:50:46;;;;;;;61.70;29.67;;;;;;;;;;4992311;28;20029;-62
2021/09/15 03:53:17;;;;;;;61.22;28.33;;;;;;;;;;4992783;28;20030;-62
2021/09/15 03:55:47;;;;;;;66.75;31.35;;;;;;;;;;4971570;28;20018;-62
2021/09/15 03:58:15;;;;;;;60.53;31.17;;;;;;;;;;4999253;28;20030;-62
2021/09/15 04:00:46;;;;;;;71.90;32.17;;;;;;;;;;4988334;28;20446;-61
2021/09/15 04:03:11;;;;;;;67.93;31.23;;;;;;;;;;4981648;28;20042;-62
2021/09/15 04:05:39;;;;;;;69.40;31.90;;;;;;;;;;4976360;28;20022;-62
2021/09/15 04:08:07;;;;;;;59.47;30.45;;;;;;;;;;4989332;28;20045;-61
2021/09/15 04:10:33;;;;;;;63.03;30.92;;;;;;;;;;4989710;28;20155;-63
2021/09/15 04:13:00;;;;;;;61.15;30.13;;;;;;;;;;4979692;28;21240;-62
2021/09/15 04:15:26;;;;;;;66.55;31.20;;;;;;;;;;4994434;28;20049;-62
2021/09/15 04:17:56;;;;;;;68.90;31.83;;;;;;;;;;4980124;28;20049;-62
2021/09/15 04:20:24;;;;;;;67.38;31.17;;;;;;;;;;4993210;28;20457;-62
2021/09/15 04:22:53;;;;;;;61.10;30.38;;;;;;;;;;4999064;28;20151;-62
2021/09/15 04:31:15;;;;;;;72.90;33.63;;;;;;;;;;4997775;28;20040;-62
2021/09/15 04:33:43;;;;;;;73.10;31.05;;;;;;;;;;4993891;28;20037;-62
2021/09/15 04:36:11;;;;;;;66.00;30.30;;;;;;;;;;4998104;28;20040;-62
2021/09/15 04:38:43;;;;;;;68.50;31.55;;;;;;;;;;4998915;28;20412;-62
2021/09/15 04:41:09;;;;;;;65.07;31.10;;;;;;;;;;4974737;28;20041;-63
2021/09/15 04:43:35;;;;;;;61.92;32.70;;;;;;;;;;4996643;28;20048;-63
2021/09/15 04:46:00;;;;;;;69.72;32.05;;;;;;;;;;4993000;28;20049;-65
2021/09/15 04:48:27;;;;;;;69.22;33.65;;;;;;;;;;4993110;28;20128;-62
2021/09/15 04:50:55;;;;;;;64.53;32.78;;;;;;;;;;5007177;28;20065;-62
2021/09/15 04:53:25;;;;;;;70.80;34.42;;;;;;;;;;4975798;28;20036;-62
2021/09/15 04:55:55;;;;;;;70.22;32.88;;;;;;;;;;4995878;28;20041;-62
2021/09/15 04:58:21;;;;;;;76.00;34.00;;;;;;;;;;4994789;28;20380;-64
2021/09/15 05:00:51;;;;;;;79.70;35.85;;;;;;;;;;4997922;28;20033;-63
2021/09/15 05:03:19;;;;;;;73.55;33.55;;;;;;;;;;4999610;28;20864;-63
2021/09/15 05:05:45;;;;;;;69.03;33.53;;;;;;;;;;4995715;28;20760;-63
2021/09/15 05:08:10;;;;;;;73.90;34.88;;;;;;;;;;4996765;28;20120;-63
2021/09/15 05:10:41;;;;;;;77.85;35.47;;;;;;;;;;4965300;28;20037;-62
2021/09/15 05:13:09;;;;;;;71.53;33.50;;;;;;;;;;4987535;28;20026;-61
2021/09/15 05:15:37;;;;;;;70.47;34.20;;;;;;;;;;4997209;28;20539;-63
2021/09/15 05:18:05;;;;;;;66.95;34.08;;;;;;;;;;4984787;28;21895;-63
2021/09/15 05:20:30;;;;;;;69.05;35.00;;;;;;;;;;4990254;28;20042;-62
2021/09/15 05:22:58;;;;;;;84.07;35.70;;;;;;;;;;4987126;28;20034;-62
2021/09/15 05:25:26;;;;;;;72.93;35.53;;;;;;;;;;4981475;28;21078;-64
2021/09/15 05:27:54;;;;;;;81.22;35.35;;;;;;;;;;4985046;28;20030;-62
2021/09/15 05:30:23;;;;;;;76.00;34.75;;;;;;;;;;4982702;28;20064;-62
2021/09/15 05:32:48;;;;;;;76.68;33.85;;;;;;;;;;4984596;28;20496;-63
2021/09/15 05:35:17;;;;;;;80.53;37.15;;;;;;;;;;4984006;28;20038;-62
2021/09/15 05:37:42;;;;;;;79.90;37.63;;;;;;;;;;4969461;28;20064;-62
2021/09/15 05:40:08;;;;;;;76.13;36.60;;;;;;;;;;4978245;28;20465;-62
2021/09/15 05:42:34;;;;;;;75.03;35.20;;;;;;;;;;4989985;28;20042;-63
2021/09/15 05:45:02;;;;;;;70.97;35.22;;;;;;;;;;4992893;28;20030;-63
2021/09/15 05:47:31;;;;;;;67.32;34.00;;;;;;;;;;4958541;28;20037;-63
2021/09/15 05:49:59;;;;;;;65.70;31.35;;;;;;;;;;4994803;28;20034;-61
2021/09/15 05:52:30;;;;;;;67.65;33.47;;;;;;;;;;4996765;28;20097;-61
2021/09/15 05:54:56;;;;;;;64.65;32.08;;;;;;;;;;4977998;28;20034;-62
2021/09/15 05:57:24;;;;;;;64.18;32.35;;;;;;;;;;4984519;28;20030;-62
2021/09/15 05:59:51;;;;;;;72.63;34.33;;;;;;;;;;4998007;28;20108;-63
2021/09/15 06:02:19;;;;;;;62.28;32.78;;;;;;;;;;4947327;28;20091;-62
2021/09/15 06:04:47;;;;;;;63.10;31.67;;;;;;;;;;4967787;28;20077;-61
2021/09/15 06:07:15;;;;;;;69.28;32.58;;;;;;;;;;4982701;28;20029;-63
2021/09/15 06:09:44;;;;;;;74.68;33.22;;;;;;;;;;4987080;28;20554;-63
2021/09/15 06:12:16;;;;;;;63.97;31.02;;;;;;;;;;4974337;28;20061;-62
2021/09/15 06:14:42;;;;;;;66.78;32.42;;;;;;;;;;4995478;28;20088;-62
2021/09/15 06:17:08;;;;;;;59.08;31.33;;;;;;;;;;4972654;28;20029;-62
2021/09/15 06:19:33;;;;;;;58.67;31.25;;;;;;;;;;5000302;28;20080;-63
2021/09/15 06:22:03;;;;;;;56.53;30.02;;;;;;;;;;4950161;28;20981;-62
2021/09/15 06:24:31;;;;;;;59.45;30.80;;;;;;;;;;4997363;28;20484;-63
2021/09/15 06:26:59;;;;;;;61.45;30.10;;;;;;;;;;4998384;28;20022;-63
2021/09/15 06:29:24;;;;;;;56.53;30.58;;;;;;;;;;4989941;28;20038;-64
2021/09/15 06:31:50;;;;;;;59.45;30.48;;;;;;;;;;4966452;28;20062;-63
2021/09/15 06:34:18;;;;;;;58.95;30.55;;;;;;;;;;4964386;28;20052;-62
2021/09/15 06:36:43;;;;;;;59.28;30.92;;;;;;;;;;4960542;28;20029;-63
2021/09/15 06:39:09;;;;;;;53.65;29.77;;;;;;;;;;4959239;28;20037;-63
2021/09/15 06:41:37;;;;;;;60.13;30.67;;;;;;;;;;4989996;28;20040;-63
2021/09/15 06:44:02;;;;;;;60.88;30.05;;;;;;;;;;4977172;28;20571;-64
2021/09/15 06:46:28;;;;;;;54.75;29.83;;;;;;;;;;4975736;28;20064;-63
2021/09/15 06:48:53;;;;;;;59.10;28.73;;;;;;;;;;4961391;28;20424;-64
2021/09/15 06:51:21;;;;;;;64.75;30.48;;;;;;;;;;4971819;28;20033;-63
2021/09/15 06:53:47;;;;;;;60.03;30.23;;;;;;;;;;4973684;28;20045;-63
2021/09/15 06:56:13;;;;;;;58.33;28.83;;;;;;;;;;4956478;28;21147;-63
2021/09/15 06:58:40;;;;;;;62.85;30.38;;;;;;;;;;4979649;28;20109;-62
2021/09/15 07:01:06;;;;;;;63.92;31.77;;;;;;;;;;4965693;28;20103;-63
2021/09/15 07:03:34;;;;;;;61.92;30.40;;;;;;;;;;4974388;28;20043;-62
2021/09/15 07:06:01;;;;;;;65.00;32.38;;;;;;;;;;5003451;28;20021;-63
2021/09/15 07:08:27;;;;;;;57.58;29.77;;;;;;;;;;4977962;28;20036;-63
2021/09/15 07:10:54;;;;;;;62.15;29.80;;;;;;;;;;4999924;28;20026;-63
2021/09/15 07:13:20;;;;;;;60.70;30.05;;;;;;;;;;4992815;28;20537;-63
2021/09/15 07:15:48;;;;;;;59.47;28.80;;;;;;;;;;4960831;28;20034;-63
2021/09/15 07:18:16;;;;;;;58.03;28.60;;;;;;;;;;4968691;28;20057;-63
2021/09/15 07:20:41;;;;;;;64.97;29.63;;;;;;;;;;4984409;28;20026;-63
2021/09/15 07:23:09;;;;;;;62.28;28.88;;;;;;;;;;4986100;28;20421;-63
2021/09/15 07:25:36;;;;;;;58.78;28.80;;;;;;;;;;4961148;28;20080;-63
2021/09/15 07:28:02;;;;;;;59.58;27.85;;;;;;;;;;4981249;28;20038;-63
2021/09/15 07:30:30;;;;;;;52.03;27.90;;;;;;;;;;4999712;28;20100;-63
2021/09/15 07:32:58;;;;;;;53.63;28.25;;;;;;;;;;4976010;28;20033;-63
2021/09/15 07:35:25;;;;;;;51.00;26.15;;;;;;;;;;5005804;28;20980;-63
2021/09/15 07:37:51;;;;;;;52.47;26.98;;;;;;;;;;4992702;28;20041;-63
2021/09/15 07:40:16;;;;;;;50.25;25.63;;;;;;;;;;4959180;28;20046;-63
2021/09/15 07:42:45;;;;;;;51.50;26.58;;;;;;;;;;5007994;28;20490;-63
2021/09/15 07:45:13;;;;;;;43.17;25.05;;;;;;;;;;4974105;28;20132;-63
2021/09/15 07:47:41;;;;;;;48.67;25.70;;;;;;;;;;4969830;28;20084;-63
2021/09/15 07:50:10;;;;;;;48.00;25.30;;;;;;;;;;4975947;28;20056;-63
2021/09/15 07:52:38;;;;;;;49.40;24.80;;;;;;;;;;4980455;28;20768;-63
2021/09/15 07:55:08;;;;;;;44.92;24.15;;;;;;;;;;4989905;28;20026;-63
2021/09/15 07:57:42;;;;;;;42.88;24.13;;;;;;;;;;5006996;28;20087;-63
2021/09/15 08:00:08;;;;;;;44.05;23.83;;;;;;;;;;4992891;28;20025;-63
2021/09/15 08:02:33;;;;;;;39.92;22.65;;;;;;;;;;4981170;28;20338;-62
2021/09/15 08:04:58;;;;;;;42.60;23.48;;;;;;;;;;4997527;28;20121;-64
2021/09/15 08:07:24;;;;;;;39.45;22.98;;;;;;;;;;4962676;28;20574;-64
2021/09/15 08:09:51;;;;;;;33.25;20.48;;;;;;;;;;4979331;28;20018;-64
2021/09/15 08:12:17;;;;;;;39.45;21.65;;;;;;;;;;5012638;28;20487;-64
2021/09/15 08:14:42;;;;;;;39.08;20.83;;;;;;;;;;4996111;28;20073;-62
2021/09/15 08:17:13;;;;;;;34.72;20.20;;;;;;;;;;5000420;28;20676;-62
2021/09/15 08:19:40;;;;;;;33.78;21.17;;;;;;;;;;4996025;28;20045;-64
2021/09/15 08:22:06;;;;;;;35.60;20.23;;;;;;;;;;4991831;28;20037;-64
2021/09/15 08:24:33;;;;;;;36.15;20.83;;;;;;;;;;4997872;28;20037;-64
2021/09/15 08:27:01;;;;;;;32.22;20.48;;;;;;;;;;4979985;28;20034;-63
2021/09/15 08:29:29;;;;;;;34.42;20.23;;;;;;;;;;4995292;28;20037;-63
2021/09/15 08:31:55;;;;;;;39.95;20.60;;;;;;;;;;4980791;28;20080;-63
2021/09/15 08:34:23;;;;;;;33.83;19.48;;;;;;;;;;4977711;28;20621;-63
2021/09/15 08:36:51;;;;;;;33.63;20.27;;;;;;;;;;4955926;28;20033;-63
2021/09/15 08:39:16;;;;;;;33.85;19.85;;;;;;;;;;4982785;28;20034;-62
2021/09/15 08:41:42;;;;;;;32.38;18.40;;;;;;;;;;4994361;28;20021;-64
2021/09/15 08:44:10;;;;;;;29.42;18.17;;;;;;;;;;4998953;28;20049;-64
2021/09/15 08:46:38;;;;;;;31.63;19.42;;;;;;;;;;4976997;28;20037;-64
2021/09/15 08:49:04;;;;;;;35.83;19.65;;;;;;;;;;4957933;28;20057;-64
2021/09/15 08:51:29;;;;;;;29.52;18.67;;;;;;;;;;4981548;28;20026;-64
2021/09/15 08:53:55;;;;;;;33.28;19.75;;;;;;;;;;4996479;28;20072;-63
2021/09/15 08:56:23;;;;;;;29.00;18.20;;;;;;;;;;4981120;28;20412;-64
2021/09/15 08:58:52;;;;;;;32.35;19.65;;;;;;;;;;4980626;28;20042;-63
2021/09/15 09:01:22;;;;;;;31.42;18.38;;;;;;;;;;4995936;28;20493;-64
2021/09/15 09:03:53;;;;;;;32.60;17.65;;;;;;;;;;4998532;28;20046;-64
2021/09/15 09:06:21;;;;;;;34.33;18.10;;;;;;;;;;4977265;28;20034;-63
2021/09/15 09:08:52;;;;;;;34.97;19.25;;;;;;;;;;5004606;28;20141;-64
2021/09/15 09:11:18;;;;;;;29.00;18.35;;;;;;;;;;4994826;28;21185;-64
2021/09/15 09:13:48;;;;;;;35.85;19.67;;;;;;;;;;4991397;28;20064;-64
2021/09/15 09:16:19;;;;;;;32.05;18.42;;;;;;;;;;4995530;28;20649;-64
2021/09/15 09:18:55;;;;;;;35.25;20.42;;;;;;;;;;4993582;28;20427;-64
2021/09/15 09:21:26;;;;;;;37.92;20.80;;;;;;;;;;5006677;28;20029;-63
2021/09/15 09:23:58;;;;;;;44.20;22.37;;;;;;;;;;4988808;28;20095;-63
2021/09/15 09:26:42;;;;;;;42.67;21.65;;;;;;;;;;4994104;28;20525;-63
2021/09/15 09:29:16;;;;;;;40.85;21.98;;;;;;;;;;4992760;28;20100;-65
2021/09/15 09:32:15;;;;;;;37.50;21.35;;;;;;;;;;4992866;28;20045;-63
2021/09/15 09:34:46;;;;;;;44.80;22.83;;;;;;;;;;4996954;28;20587;-63
2021/09/15 09:37:18;;;;;;;44.63;22.40;;;;;;;;;;4994187;28;20039;-63
2021/09/15 09:39:51;;;;;;;42.75;21.90;;;;;;;;;;4971891;28;20037;-64
2021/09/15 09:42:22;;;;;;;41.28;21.67;;;;;;;;;;4991613;28;20412;-63
2021/09/15 09:44:48;;;;;;;40.30;20.85;;;;;;;;;;5002939;28;20099;-64
2021/09/15 09:47:21;;;;;;;38.03;21.35;;;;;;;;;;4992651;28;20041;-63
2021/09/15 09:50:01;;;;;;;39.47;21.25;;;;;;;;;;4994380;28;20075;-63
2021/09/15 09:52:29;;;;;;;40.30;22.08;;;;;;;;;;4991630;28;20036;-64
2021/09/15 09:55:00;;;;;;;34.80;20.55;;;;;;;;;;4995671;28;20025;-64
2021/09/15 09:57:29;;;;;;;37.97;21.65;;;;;;;;;;4969338;28;20037;-63
2021/09/15 10:00:01;;;;;;;36.17;19.90;;;;;;;;;;4985701;28;20496;-63
2021/09/15 10:02:28;;;;;;;31.50;18.67;;;;;;;;;;4992463;28;20900;-63
2021/09/15 10:05:02;;;;;;;30.13;17.88;;;;;;;;;;4963036;28;20034;-63
2021/09/15 10:07:30;;;;;;;36.35;19.83;;;;;;;;;;4996519;28;20067;-63
2021/09/15 10:09:59;;;;;;;30.90;17.88;;;;;;;;;;4974041;28;20045;-63
2021/09/15 10:12:27;;;;;;;37.03;19.95;;;;;;;;;;4977171;28;20041;-64
2021/09/15 10:15:00;;;;;;;30.27;18.33;;;;;;;;;;4991798;28;20044;-63
2021/09/15 10:17:27;;;;;;;28.60;17.13;;;;;;;;;;4991959;28;20059;-63
2021/09/15 10:19:53;;;;;;;32.97;18.58;;;;;;;;;;4993837;28;20084;-63
2021/09/15 10:22:32;;;;;;;27.50;16.20;;;;;;;;;;5010093;28;20115;-64
2021/09/15 10:24:58;;;;;;;31.27;17.08;;;;;;;;;;4976436;28;20044;-64
2021/09/15 10:27:25;;;;;;;25.52;16.00;;;;;;;;;;4988556;28;20025;-64
2021/09/15 10:30:09;;;;;;;25.20;15.00;;;;;;;;;;4985664;28;20501;-65
2021/09/15 10:32:36;;;;;;;28.80;16.00;;;;;;;;;;4977511;28;20437;-62
2021/09/15 10:35:05;;;;;;;25.67;15.52;;;;;;;;;;5008709;28;22085;-65
2021/09/15 10:37:30;;;;;;;27.10;15.55;;;;;;;;;;4992991;28;20044;-65
2021/09/15 10:39:56;;;;;;;27.52;16.55;;;;;;;;;;4995562;28;20086;-64
2021/09/15 10:42:34;;;;;;;29.40;15.88;;;;;;;;;;4973553;28;20018;-64
2021/09/15 10:45:09;;;;;;;27.40;16.33;;;;;;;;;;4992967;28;20037;-64
2021/09/15 10:47:45;;;;;;;32.42;17.73;;;;;;;;;;4974626;28;20061;-63
2021/09/15 10:50:32;;;;;;;28.92;16.65;;;;;;;;;;4974368;28;20041;-66
2021/09/15 10:53:10;;;;;;;27.27;16.88;;;;;;;;;;4992164;28;20124;-64
2021/09/15 10:55:41;;;;;;;29.45;16.60;;;;;;;;;;4990459;28;20381;-63
2021/09/15 10:58:10;;;;;;;33.80;16.33;;;;;;;;;;4993744;28;20040;-63
2021/09/15 11:00:47;;;;;;;27.95;16.73;;;;;;;;;;4986622;28;20080;-64
2021/09/15 11:03:21;;;;;;;26.02;16.10;;;;;;;;;;5005726;28;20030;-64
2021/09/15 11:05:47;;;;;;;29.17;15.95;;;;;;;;;;4968657;28;20096;-62
2021/09/15 11:08:19;;;;;;;27.73;14.25;;;;;;;;;;4977528;28;20076;-63
2021/09/15 11:10:49;;;;;;;23.88;13.75;;;;;;;;;;4981073;28;20122;-63
2021/09/15 11:13:15;;;;;;;24.13;13.75;;;;;;;;;;4974555;28;20033;-63
2021/09/15 11:15:46;;;;;;;27.85;13.55;;;;;;;;;;4992686;28;20219;-63
2021/09/15 11:18:21;;;;;;;21.60;12.80;;;;;;;;;;4993697;28;20148;-63
2021/09/15 11:20:55;;;;;;;22.92;11.52;;;;;;;;;;4994990;28;20076;-63
2021/09/15 11:23:26;;;;;;;20.10;11.55;;;;;;;;;;4992664;28;20048;-63
2021/09/15 11:25:52;;;;;;;22.05;12.82;;;;;;;;;;5007966;28;20029;-64
2021/09/15 11:28:19;;;;;;;20.65;12.23;;;;;;;;;;4989554;28;20033;-63
2021/09/15 11:30:50;;;;;;;19.90;11.60;;;;;;;;;;4978673;28;20201;-62
2021/09/15 11:33:47;;;;;;;24.40;13.25;;;;;;;;;;5006936;28;20117;-63
2021/09/15 11:36:17;;;;;;;24.50;13.13;;;;;;;;;;4979546;28;20060;-64
2021/09/15 11:38:47;;;;;;;25.77;13.20;;;;;;;;;;4995072;28;20041;-63
2021/09/15 11:41:14;;;;;;;24.20;13.15;;;;;;;;;;4992490;28;20057;-63
2021/09/15 11:43:42;;;;;;;19.05;12.18;;;;;;;;;;5008290;28;20607;-63
2021/09/15 11:46:10;;;;;;;20.00;11.63;;;;;;;;;;4993922;28;20396;-65
2021/09/15 11:48:36;;;;;;;22.17;11.63;;;;;;;;;;4994270;28;20109;-62
2021/09/15 11:51:16;;;;;;;19.75;11.27;;;;;;;;;;4976574;28;20034;-63
2021/09/15 11:57:04;;;;;;;24.20;13.15;;;;;;;;;;4992922;28;20177;-63
2021/09/15 11:59:30;;;;;;;21.10;12.32;;;;;;;;;;4977969;28;20083;-63
2021/09/15 12:01:59;;;;;;;25.27;13.00;;;;;;;;;;4994905;28;20065;-63
2021/09/15 12:04:25;;;;;;;18.33;11.85;;;;;;;;;;4996890;28;20042;-63
2021/09/15 12:06:51;;;;;;;21.02;11.60;;;;;;;;;;4992089;28;20042;-64
2021/09/15 12:09:21;;;;;;;18.83;11.75;;;;;;;;;;4990397;28;20124;-64
2021/09/15 12:11:50;;;;;;;20.88;11.90;;;;;;;;;;4996948;28;20123;-67
2021/09/15 12:14:16;;;;;;;19.05;12.43;;;;;;;;;;5001725;28;20455;-66
2021/09/15 12:16:44;;;;;;;20.20;12.90;;;;;;;;;;5005041;28;20038;-64
2021/09/15 12:19:19;;;;;;;21.95;12.50;;;;;;;;;;4984478;28;20037;-65
2021/09/15 12:21:46;;;;;;;21.67;12.27;;;;;;;;;;4993230;28;20928;-65
2021/09/15 12:24:12;;;;;;;20.80;12.65;;;;;;;;;;4973092;28;20025;-62
2021/09/15 12:26:40;;;;;;;20.67;12.63;;;;;;;;;;4982962;28;20057;-63
2021/09/15 12:29:07;;;;;;;22.30;12.52;;;;;;;;;;4992553;28;20040;-64
2021/09/15 12:31:47;;;;;;;22.65;13.05;;;;;;;;;;4994383;28;20022;-65
2021/09/15 12:34:30;;;;;;;24.23;11.80;;;;;;;;;;5006090;28;20408;-65
2021/09/15 12:37:10;;;;;;;20.45;12.27;;;;;;;;;;5013659;28;20029;-65
2021/09/15 12:39:48;;;;;;;20.85;13.35;;;;;;;;;;4988972;28;20060;-63
2021/09/15 12:42:15;;;;;;;23.85;13.68;;;;;;;;;;4993457;28;21918;-67
2021/09/15 12:44:41;;;;;;;20.27;11.80;;;;;;;;;;4995005;28;20132;-65
2021/09/15 12:47:06;;;;;;;24.73;12.15;;;;;;;;;;5012289;28;20082;-66
2021/09/15 12:49:42;;;;;;;21.80;11.00;;;;;;;;;;5012378;28;20033;-65
2021/09/15 12:52:18;;;;;;;20.27;11.50;;;;;;;;;;4993887;28;20451;-64
2021/09/15 12:54:53;;;;;;;15.97;9.80;;;;;;;;;;4995371;28;20033;-66
2021/09/15 12:57:29;;;;;;;17.20;10.55;;;;;;;;;;4977778;28;20037;-66
2021/09/15 13:00:14;;;;;;;15.65;9.98;;;;;;;;;;5009932;28;20126;-63
2021/09/15 13:02:49;;;;;;;16.48;9.23;;;;;;;;;;4973540;28;20089;-64
2021/09/15 13:05:16;;;;;;;15.32;9.93;;;;;;;;;;4988084;28;20040;-65
2021/09/15 13:07:42;;;;;;;14.40;9.48;;;;;;;;;;4979384;28;20063;-65
2021/09/15 13:10:08;;;;;;;12.07;8.20;;;;;;;;;;4971727;28;20038;-63
2021/09/15 13:12:36;;;;;;;16.05;8.45;;;;;;;;;;4986961;28;20034;-63
2021/09/15 13:15:06;;;;;;;13.27;8.52;;;;;;;;;;5003261;28;20041;-65
2021/09/15 13:17:33;;;;;;;12.40;7.82;;;;;;;;;;4998282;28;20131;-63
2021/09/15 13:19:58;;;;;;;13.27;7.97;;;;;;;;;;4988141;28;20049;-64
2021/09/15 13:22:24;;;;;;;13.98;7.95;;;;;;;;;;4965120;28;20128;-64
2021/09/15 13:24:50;;;;;;;11.75;7.15;;;;;;;;;;5010191;28;20114;-65
2021/09/15 13:27:16;;;;;;;10.20;6.68;;;;;;;;;;4992339;28;20040;-65
2021/09/15 13:29:41;;;;;;;10.32;6.70;;;;;;;;;;4976817;28;20029;-63
2021/09/15 13:32:08;;;;;;;11.55;5.85;;;;;;;;;;4986094;28;20112;-64
2021/09/15 13:34:34;;;;;;;10.30;5.93;;;;;;;;;;4978625;28;20092;-64
2021/09/15 13:37:00;;;;;;;9.90;5.97;;;;;;;;;;4977111;28;20064;-63
2021/09/15 13:39:26;;;;;;;13.05;5.78;;;;;;;;;;4994270;28;20407;-64
2021/09/15 13:41:52;;;;;;;8.40;5.82;;;;;;;;;;4993883;28;20033;-64
2021/09/15 13:44:20;;;;;;;10.38;6.60;;;;;;;;;;4989906;28;20021;-65
2021/09/15 13:46:46;;;;;;;9.95;6.15;;;;;;;;;;4991215;28;20033;-64
2021/09/15 13:49:11;;;;;;;8.48;5.68;;;;;;;;;;4990678;28;20042;-64
2021/09/15 13:51:37;;;;;;;7.20;5.57;;;;;;;;;;4993216;28;20156;-63
2021/09/15 13:54:03;;;;;;;9.52;5.97;;;;;;;;;;4996871;28;20653;-64
2021/09/15 13:56:29;;;;;;;8.93;6.10;;;;;;;;;;5010473;28;20370;-62
2021/09/15 13:58:54;;;;;;;8.05;6.07;;;;;;;;;;4977431;28;20041;-60
2021/09/15 14:01:23;;;;;;;10.68;6.38;;;;;;;;;;4994885;28;20481;-65
2021/09/15 14:03:49;;;;;;;7.60;5.57;;;;;;;;;;4972645;28;20029;-64
2021/09/15 14:06:17;;;;;;;8.10;4.80;;;;;;;;;;4994679;28;21946;-63
2021/09/15 14:08:43;;;;;;;8.27;4.60;;;;;;;;;;4989871;28;20166;-64
2021/09/15 14:11:09;;;;;;;5.82;3.95;;;;;;;;;;4992535;28;20602;-64
2021/09/15 14:13:35;;;;;;;5.43;3.65;;;;;;;;;;4989096;28;20033;-63
2021/09/15 14:16:00;;;;;;;5.28;3.58;;;;;;;;;;4993232;28;20669;-64
2021/09/15 14:18:26;;;;;;;5.60;2.63;;;;;;;;;;4992138;28;20034;-64
2021/09/15 14:20:54;;;;;;;4.35;3.10;;;;;;;;;;4995731;28;20812;-64
2021/09/15 14:23:22;;;;;;;5.35;3.00;;;;;;;;;;4990739;28;20208;-65
2021/09/15 14:25:48;;;;;;;4.63;2.47;;;;;;;;;;4992362;28;20339;-63
2021/09/15 14:28:13;;;;;;;2.88;2.38;;;;;;;;;;4972250;28;20100;-63
2021/09/15 14:30:44;;;;;;;4.45;2.80;;;;;;;;;;4990554;28;20160;-63
2021/09/15 14:33:10;;;;;;;6.30;3.03;;;;;;;;;;4991933;28;20149;-63
2021/09/15 14:35:38;;;;;;;4.95;3.40;;;;;;;;;;5007599;28;20169;-64